首页
METAR-TAF:

METAR-TAF

机场 :

哥伦比亚, 南卡罗来纳州, 美国

纬度: 33-58-15N, 经度: 080-59-40W, 海拔: 64米

当前天气观测

该预报发布于56分钟前的09:53 UTC
风速5节,风向
温度 21°C
湿度 73%
气压 1007 hPa
能見度: 16.1公里
阴天层高于10000英尺

METAR: KCUB 260953Z AUTO 18005KT 10SM OVC100 21/16 A2974 RMK AO2 SLP069 T02060161

时间: 06:49 (10:49 UTC)

预报

该预报发布于2小时和9分钟前的08:40 UTC
预报有效从26日的 09点(UTC)到 27日的 06点(UTC)
风速7节,风向南转西南
能見度: 10公里
散云层高于3500英尺
阴天层高于6000英尺
从 26日的 1400点(UTC)
风速8节,风向西转西南,有时为18节阵风
能見度: 10公里
散云层高于2000英尺
阴天层高于3500英尺
从 26日的 1600点(UTC)
风速18节,风向西,有时为28节阵风
能見度: 10公里
多云层高于4000英尺
从 27日的 0200点(UTC)
风速10节,风向西
能見度: 10公里
天空无云

TAF: KCUB 260840Z 2609/2706 20007KT P6SM SCT035 OVC060 FM261400 24008G18KT P6SM SCT020 OVC035 FM261600 27018G28KT P6SM BKN040 FM270200 27010KT P6SM SKC

超过4000个机场的气象观测和天气预报(METAR&TAF报告)。

可查询的气象台以黄色和红色小点在地图上表示。

将鼠标移到小点上方,可查看气象台名称。

然后点击查看天气观测和预报。

如需切换地图:点击带黑十字的绿色按钮放大地图;点击带横线的绿色按钮缩小地图;或者点击绿色箭头查看邻近地区的地图。


METAR-TAF: